sensor_id;sensor_type;location;lat;lon;timestamp;P1;durP1;ratioP1;P2;durP2;ratioP2
31438;SDS011;18062;48.872;9.220;2022-08-05T00:03:38;108.75;;;102.07;;
31438;SDS011;18062;48.872;9.220;2022-08-05T00:06:04;99.97;;;93.57;;
31438;SDS011;18062;48.872;9.220;2022-08-05T00:08:30;95.68;;;89.95;;
31438;SDS011;18062;48.872;9.220;2022-08-05T00:10:57;101.70;;;95.80;;
31438;SDS011;18062;48.872;9.220;2022-08-05T00:13:23;94.90;;;89.25;;
31438;SDS011;18062;48.872;9.220;2022-08-05T00:15:49;99.60;;;93.00;;
31438;SDS011;18062;48.872;9.220;2022-08-05T00:18:15;92.10;;;86.75;;
31438;SDS011;18062;48.872;9.220;2022-08-05T00:20:41;92.07;;;86.68;;
31438;SDS011;18062;48.872;9.220;2022-08-05T00:23:07;89.53;;;83.63;;
31438;SDS011;18062;48.872;9.220;2022-08-05T00:25:33;83.63;;;78.40;;
31438;SDS011;18062;48.872;9.220;2022-08-05T00:27:59;93.25;;;87.68;;
31438;SDS011;18062;48.872;9.220;2022-08-05T00:30:25;84.53;;;79.07;;
31438;SDS011;18062;48.872;9.220;2022-08-05T00:32:51;81.83;;;76.03;;
31438;SDS011;18062;48.872;9.220;2022-08-05T00:35:18;75.57;;;70.70;;
31438;SDS011;18062;48.872;9.220;2022-08-05T00:37:44;74.70;;;69.33;;
31438;SDS011;18062;48.872;9.220;2022-08-05T00:40:10;80.67;;;75.77;;
31438;SDS011;18062;48.872;9.220;2022-08-05T00:42:36;81.47;;;76.20;;
31438;SDS011;18062;48.872;9.220;2022-08-05T00:45:07;75.47;;;70.53;;
31438;SDS011;18062;48.872;9.220;2022-08-05T00:47:33;72.37;;;66.83;;
31438;SDS011;18062;48.872;9.220;2022-08-05T00:50:00;66.83;;;61.33;;
31438;SDS011;18062;48.872;9.220;2022-08-05T00:52:26;68.57;;;64.37;;
31438;SDS011;18062;48.872;9.220;2022-08-05T00:54:52;65.77;;;60.17;;
31438;SDS011;18062;48.872;9.220;2022-08-05T00:57:18;64.27;;;59.70;;
31438;SDS011;18062;48.872;9.220;2022-08-05T00:59:44;73.63;;;68.13;;
31438;SDS011;18062;48.872;9.220;2022-08-05T01:02:10;58.93;;;54.50;;
31438;SDS011;18062;48.872;9.220;2022-08-05T01:04:36;64.50;;;60.07;;
31438;SDS011;18062;48.872;9.220;2022-08-05T01:07:02;64.83;;;59.97;;
31438;SDS011;18062;48.872;9.220;2022-08-05T01:09:28;64.90;;;59.57;;
31438;SDS011;18062;48.872;9.220;2022-08-05T01:11:54;68.00;;;62.87;;
31438;SDS011;18062;48.872;9.220;2022-08-05T01:14:25;70.97;;;65.93;;
31438;SDS011;18062;48.872;9.220;2022-08-05T01:19:24;81.13;;;75.97;;
31438;SDS011;18062;48.872;9.220;2022-08-05T01:21:54;92.33;;;86.93;;
31438;SDS011;18062;48.872;9.220;2022-08-05T01:24:34;104.07;;;97.20;;
31438;SDS011;18062;48.872;9.220;2022-08-05T01:27:25;110.60;;;104.63;;
31438;SDS011;18062;48.872;9.220;2022-08-05T01:29:55;110.80;;;104.53;;
31438;SDS011;18062;48.872;9.220;2022-08-05T01:32:23;119.77;;;112.67;;
31438;SDS011;18062;48.872;9.220;2022-08-05T01:35:01;126.90;;;119.33;;
31438;SDS011;18062;48.872;9.220;2022-08-05T01:37:30;134.87;;;127.53;;
31438;SDS011;18062;48.872;9.220;2022-08-05T01:39:57;130.63;;;123.57;;
31438;SDS011;18062;48.872;9.220;2022-08-05T01:42:24;131.88;;;124.13;;
31438;SDS011;18062;48.872;9.220;2022-08-05T01:44:51;130.50;;;123.23;;
31438;SDS011;18062;48.872;9.220;2022-08-05T01:47:20;126.47;;;119.20;;
31438;SDS011;18062;48.872;9.220;2022-08-05T01:49:46;137.18;;;129.32;;
31438;SDS011;18062;48.872;9.220;2022-08-05T01:52:14;136.48;;;128.35;;
31438;SDS011;18062;48.872;9.220;2022-08-05T01:54:43;143.90;;;136.20;;
31438;SDS011;18062;48.872;9.220;2022-08-05T01:57:11;143.80;;;135.73;;
31438;SDS011;18062;48.872;9.220;2022-08-05T01:59:38;146.30;;;137.80;;
31438;SDS011;18062;48.872;9.220;2022-08-05T02:02:05;133.05;;;125.57;;
31438;SDS011;18062;48.872;9.220;2022-08-05T02:04:32;128.40;;;121.20;;
31438;SDS011;18062;48.872;9.220;2022-08-05T02:06:59;145.07;;;135.65;;
31438;SDS011;18062;48.872;9.220;2022-08-05T02:09:25;136.13;;;128.48;;
31438;SDS011;18062;48.872;9.220;2022-08-05T02:14:31;124.20;;;117.63;;
31438;SDS011;18062;48.872;9.220;2022-08-05T02:17:03;130.82;;;123.40;;
31438;SDS011;18062;48.872;9.220;2022-08-05T02:19:30;119.25;;;112.22;;
31438;SDS011;18062;48.872;9.220;2022-08-05T02:21:58;121.88;;;115.13;;
31438;SDS011;18062;48.872;9.220;2022-08-05T02:24:31;119.03;;;112.35;;
31438;SDS011;18062;48.872;9.220;2022-08-05T02:27:01;124.78;;;117.28;;
31438;SDS011;18062;48.872;9.220;2022-08-05T02:29:28;116.53;;;109.95;;
31438;SDS011;18062;48.872;9.220;2022-08-05T02:31:57;126.93;;;119.63;;
31438;SDS011;18062;48.872;9.220;2022-08-05T02:34:25;111.20;;;104.37;;
31438;SDS011;18062;48.872;9.220;2022-08-05T02:36:55;114.00;;;107.75;;
31438;SDS011;18062;48.872;9.220;2022-08-05T02:39:22;110.27;;;103.87;;
31438;SDS011;18062;48.872;9.220;2022-08-05T02:41:48;102.87;;;96.70;;
31438;SDS011;18062;48.872;9.220;2022-08-05T02:44:15;104.80;;;97.70;;
31438;SDS011;18062;48.872;9.220;2022-08-05T02:46:43;112.88;;;106.03;;
31438;SDS011;18062;48.872;9.220;2022-08-05T02:49:11;111.73;;;104.63;;
31438;SDS011;18062;48.872;9.220;2022-08-05T02:51:38;101.40;;;95.43;;
31438;SDS011;18062;48.872;9.220;2022-08-05T02:54:04;95.53;;;89.70;;
31438;SDS011;18062;48.872;9.220;2022-08-05T02:56:31;95.35;;;89.20;;
31438;SDS011;18062;48.872;9.220;2022-08-05T02:58:58;88.63;;;83.15;;
31438;SDS011;18062;48.872;9.220;2022-08-05T03:01:25;82.13;;;77.13;;
31438;SDS011;18062;48.872;9.220;2022-08-05T03:03:53;88.28;;;81.93;;
31438;SDS011;18062;48.872;9.220;2022-08-05T03:06:20;78.47;;;73.57;;
31438;SDS011;18062;48.872;9.220;2022-08-05T03:08:46;80.03;;;74.70;;
31438;SDS011;18062;48.872;9.220;2022-08-05T03:11:16;77.63;;;72.40;;
31438;SDS011;18062;48.872;9.220;2022-08-05T03:13:42;76.03;;;71.23;;
31438;SDS011;18062;48.872;9.220;2022-08-05T03:16:09;65.97;;;61.33;;
31438;SDS011;18062;48.872;9.220;2022-08-05T03:18:35;67.93;;;62.83;;
31438;SDS011;18062;48.872;9.220;2022-08-05T03:21:01;68.90;;;64.03;;
31438;SDS011;18062;48.872;9.220;2022-08-05T03:23:27;74.17;;;68.17;;
31438;SDS011;18062;48.872;9.220;2022-08-05T03:25:53;58.50;;;54.50;;
31438;SDS011;18062;48.872;9.220;2022-08-05T03:28:19;64.90;;;59.70;;
31438;SDS011;18062;48.872;9.220;2022-08-05T03:30:46;59.47;;;55.43;;
31438;SDS011;18062;48.872;9.220;2022-08-05T03:33:13;63.60;;;58.87;;
31438;SDS011;18062;48.872;9.220;2022-08-05T03:35:39;65.63;;;60.73;;
31438;SDS011;18062;48.872;9.220;2022-08-05T03:38:05;62.60;;;57.97;;
31438;SDS011;18062;48.872;9.220;2022-08-05T03:40:31;61.50;;;57.03;;
31438;SDS011;18062;48.872;9.220;2022-08-05T03:42:57;60.93;;;56.30;;
31438;SDS011;18062;48.872;9.220;2022-08-05T03:45:23;63.63;;;58.90;;
31438;SDS011;18062;48.872;9.220;2022-08-05T03:47:50;59.57;;;55.57;;
31438;SDS011;18062;48.872;9.220;2022-08-05T03:50:16;57.00;;;52.70;;
31438;SDS011;18062;48.872;9.220;2022-08-05T03:52:45;57.17;;;52.67;;
31438;SDS011;18062;48.872;9.220;2022-08-05T03:55:18;51.63;;;47.53;;
31438;SDS011;18062;48.872;9.220;2022-08-05T03:57:46;59.00;;;54.33;;
31438;SDS011;18062;48.872;9.220;2022-08-05T04:00:13;59.47;;;54.63;;
31438;SDS011;18062;48.872;9.220;2022-08-05T04:02:41;57.63;;;52.40;;
31438;SDS011;18062;48.872;9.220;2022-08-05T04:05:08;60.93;;;56.10;;
31438;SDS011;18062;48.872;9.220;2022-08-05T04:07:34;58.27;;;54.03;;
31438;SDS011;18062;48.872;9.220;2022-08-05T04:10:02;61.63;;;57.50;;
31438;SDS011;18062;48.872;9.220;2022-08-05T04:12:28;54.83;;;50.23;;
31438;SDS011;18062;48.872;9.220;2022-08-05T04:14:54;63.57;;;59.07;;
31438;SDS011;18062;48.872;9.220;2022-08-05T04:17:20;58.27;;;53.67;;
31438;SDS011;18062;48.872;9.220;2022-08-05T04:19:47;63.30;;;58.10;;
31438;SDS011;18062;48.872;9.220;2022-08-05T04:22:13;54.47;;;50.63;;
31438;SDS011;18062;48.872;9.220;2022-08-05T04:24:40;57.43;;;52.90;;
31438;SDS011;18062;48.872;9.220;2022-08-05T04:27:06;53.67;;;49.57;;
31438;SDS011;18062;48.872;9.220;2022-08-05T04:29:32;47.93;;;44.20;;
31438;SDS011;18062;48.872;9.220;2022-08-05T04:31:58;53.17;;;48.27;;
31438;SDS011;18062;48.872;9.220;2022-08-05T04:34:24;53.13;;;49.00;;
31438;SDS011;18062;48.872;9.220;2022-08-05T04:36:50;50.73;;;47.07;;
31438;SDS011;18062;48.872;9.220;2022-08-05T04:39:16;56.27;;;51.23;;
31438;SDS011;18062;48.872;9.220;2022-08-05T04:41:42;60.30;;;55.53;;
31438;SDS011;18062;48.872;9.220;2022-08-05T04:44:08;59.57;;;54.27;;
31438;SDS011;18062;48.872;9.220;2022-08-05T04:46:34;56.10;;;51.70;;
31438;SDS011;18062;48.872;9.220;2022-08-05T04:49:00;55.50;;;51.03;;
31438;SDS011;18062;48.872;9.220;2022-08-05T04:51:26;59.50;;;54.83;;
31438;SDS011;18062;48.872;9.220;2022-08-05T04:53:52;55.60;;;50.93;;
31438;SDS011;18062;48.872;9.220;2022-08-05T04:56:18;48.97;;;44.73;;
31438;SDS011;18062;48.872;9.220;2022-08-05T04:58:45;59.13;;;54.63;;
31438;SDS011;18062;48.872;9.220;2022-08-05T05:01:11;56.70;;;52.27;;
31438;SDS011;18062;48.872;9.220;2022-08-05T05:03:37;59.17;;;54.67;;
31438;SDS011;18062;48.872;9.220;2022-08-05T05:06:03;56.40;;;51.87;;
31438;SDS011;18062;48.872;9.220;2022-08-05T05:08:29;56.50;;;52.37;;
31438;SDS011;18062;48.872;9.220;2022-08-05T05:10:55;57.23;;;52.50;;
31438;SDS011;18062;48.872;9.220;2022-08-05T05:13:21;55.93;;;50.47;;
31438;SDS011;18062;48.872;9.220;2022-08-05T05:15:47;56.33;;;52.20;;
31438;SDS011;18062;48.872;9.220;2022-08-05T05:18:16;58.17;;;53.83;;
31438;SDS011;18062;48.872;9.220;2022-08-05T05:20:42;54.17;;;49.93;;
31438;SDS011;18062;48.872;9.220;2022-08-05T05:23:08;60.93;;;56.20;;
31438;SDS011;18062;48.872;9.220;2022-08-05T05:25:35;49.83;;;45.73;;
31438;SDS011;18062;48.872;9.220;2022-08-05T05:28:01;57.43;;;53.10;;
31438;SDS011;18062;48.872;9.220;2022-08-05T05:30:28;56.67;;;51.17;;
31438;SDS011;18062;48.872;9.220;2022-08-05T05:32:55;53.83;;;49.97;;
31438;SDS011;18062;48.872;9.220;2022-08-05T05:35:24;57.53;;;53.10;;
31438;SDS011;18062;48.872;9.220;2022-08-05T05:37:51;60.92;;;55.58;;
31438;SDS011;18062;48.872;9.220;2022-08-05T05:40:18;61.95;;;57.42;;
31438;SDS011;18062;48.872;9.220;2022-08-05T05:42:45;67.70;;;63.03;;
31438;SDS011;18062;48.872;9.220;2022-08-05T05:45:11;79.55;;;73.78;;
31438;SDS011;18062;48.872;9.220;2022-08-05T05:47:37;77.78;;;72.78;;
31438;SDS011;18062;48.872;9.220;2022-08-05T05:50:04;83.43;;;78.05;;
31438;SDS011;18062;48.872;9.220;2022-08-05T05:52:30;97.00;;;90.53;;
31438;SDS011;18062;48.872;9.220;2022-08-05T05:55:00;105.50;;;99.15;;
31438;SDS011;18062;48.872;9.220;2022-08-05T05:57:26;120.75;;;114.00;;
31438;SDS011;18062;48.872;9.220;2022-08-05T05:59:52;128.05;;;120.40;;
31438;SDS011;18062;48.872;9.220;2022-08-05T06:02:18;118.35;;;111.55;;
31438;SDS011;18062;48.872;9.220;2022-08-05T06:04:44;135.80;;;128.15;;
31438;SDS011;18062;48.872;9.220;2022-08-05T06:07:10;142.02;;;134.25;;
31438;SDS011;18062;48.872;9.220;2022-08-05T06:09:36;132.40;;;124.63;;
31438;SDS011;18062;48.872;9.220;2022-08-05T06:12:02;136.45;;;128.50;;
31438;SDS011;18062;48.872;9.220;2022-08-05T06:14:29;145.35;;;137.35;;
31438;SDS011;18062;48.872;9.220;2022-08-05T06:16:55;148.07;;;140.32;;
31438;SDS011;18062;48.872;9.220;2022-08-05T06:19:21;140.90;;;133.00;;
31438;SDS011;18062;48.872;9.220;2022-08-05T06:21:47;168.40;;;158.73;;
31438;SDS011;18062;48.872;9.220;2022-08-05T06:24:13;156.38;;;148.02;;
31438;SDS011;18062;48.872;9.220;2022-08-05T06:26:39;162.70;;;154.02;;
31438;SDS011;18062;48.872;9.220;2022-08-05T06:29:06;173.15;;;163.90;;
31438;SDS011;18062;48.872;9.220;2022-08-05T06:31:32;169.35;;;160.05;;
31438;SDS011;18062;48.872;9.220;2022-08-05T06:33:58;169.13;;;160.23;;
31438;SDS011;18062;48.872;9.220;2022-08-05T06:36:24;174.32;;;165.10;;
31438;SDS011;18062;48.872;9.220;2022-08-05T06:38:50;178.23;;;168.95;;
31438;SDS011;18062;48.872;9.220;2022-08-05T06:41:18;180.27;;;170.50;;
31438;SDS011;18062;48.872;9.220;2022-08-05T06:43:44;185.43;;;174.65;;
31438;SDS011;18062;48.872;9.220;2022-08-05T06:46:10;183.10;;;172.93;;
31438;SDS011;18062;48.872;9.220;2022-08-05T06:48:36;168.98;;;159.70;;
31438;SDS011;18062;48.872;9.220;2022-08-05T06:51:03;201.68;;;190.88;;
31438;SDS011;18062;48.872;9.220;2022-08-05T06:53:29;181.63;;;171.40;;
31438;SDS011;18062;48.872;9.220;2022-08-05T06:55:58;199.52;;;188.23;;
31438;SDS011;18062;48.872;9.220;2022-08-05T06:58:25;181.65;;;171.27;;
31438;SDS011;18062;48.872;9.220;2022-08-05T07:00:51;193.02;;;182.85;;
31438;SDS011;18062;48.872;9.220;2022-08-05T07:03:17;195.48;;;183.90;;
31438;SDS011;18062;48.872;9.220;2022-08-05T07:05:44;190.18;;;179.68;;
31438;SDS011;18062;48.872;9.220;2022-08-05T07:08:10;198.98;;;188.32;;
31438;SDS011;18062;48.872;9.220;2022-08-05T07:10:36;188.43;;;177.50;;
31438;SDS011;18062;48.872;9.220;2022-08-05T07:13:02;192.32;;;180.60;;
31438;SDS011;18062;48.872;9.220;2022-08-05T07:15:47;189.75;;;178.45;;
31438;SDS011;18062;48.872;9.220;2022-08-05T07:18:31;177.02;;;166.80;;
31438;SDS011;18062;48.872;9.220;2022-08-05T07:20:57;183.85;;;172.00;;
31438;SDS011;18062;48.872;9.220;2022-08-05T07:23:26;175.45;;;166.07;;
31438;SDS011;18062;48.872;9.220;2022-08-05T07:25:52;193.20;;;182.50;;
31438;SDS011;18062;48.872;9.220;2022-08-05T07:28:18;190.68;;;180.13;;
31438;SDS011;18062;48.872;9.220;2022-08-05T07:30:44;179.50;;;169.75;;
31438;SDS011;18062;48.872;9.220;2022-08-05T07:33:11;182.27;;;172.18;;
31438;SDS011;18062;48.872;9.220;2022-08-05T07:35:37;184.07;;;173.35;;
31438;SDS011;18062;48.872;9.220;2022-08-05T07:38:03;197.68;;;186.45;;
31438;SDS011;18062;48.872;9.220;2022-08-05T07:40:30;202.30;;;191.82;;
31438;SDS011;18062;48.872;9.220;2022-08-05T07:42:56;174.07;;;163.63;;
31438;SDS011;18062;48.872;9.220;2022-08-05T07:45:22;177.27;;;166.68;;
31438;SDS011;18062;48.872;9.220;2022-08-05T07:47:48;121.22;;;112.93;;
31438;SDS011;18062;48.872;9.220;2022-08-05T07:50:14;121.88;;;112.22;;
31438;SDS011;18062;48.872;9.220;2022-08-05T07:52:41;117.82;;;108.28;;
31438;SDS011;18062;48.872;9.220;2022-08-05T07:55:08;100.28;;;92.30;;
31438;SDS011;18062;48.872;9.220;2022-08-05T07:57:34;96.90;;;88.22;;
31438;SDS011;18062;48.872;9.220;2022-08-05T08:00:00;92.13;;;83.38;;
31438;SDS011;18062;48.872;9.220;2022-08-05T08:02:27;89.40;;;81.60;;
31438;SDS011;18062;48.872;9.220;2022-08-05T08:04:54;69.53;;;62.58;;
31438;SDS011;18062;48.872;9.220;2022-08-05T08:07:20;80.47;;;72.95;;
31438;SDS011;18062;48.872;9.220;2022-08-05T08:09:46;78.55;;;71.40;;
31438;SDS011;18062;48.872;9.220;2022-08-05T08:12:13;83.53;;;74.97;;
31438;SDS011;18062;48.872;9.220;2022-08-05T08:14:39;89.10;;;79.88;;
31438;SDS011;18062;48.872;9.220;2022-08-05T08:17:05;72.47;;;63.97;;
31438;SDS011;18062;48.872;9.220;2022-08-05T08:19:35;76.57;;;67.53;;
31438;SDS011;18062;48.872;9.220;2022-08-05T08:22:01;76.65;;;68.88;;
31438;SDS011;18062;48.872;9.220;2022-08-05T08:24:28;71.20;;;63.95;;
31438;SDS011;18062;48.872;9.220;2022-08-05T08:26:54;79.63;;;72.05;;
31438;SDS011;18062;48.872;9.220;2022-08-05T08:29:20;76.32;;;51.92;;
31438;SDS011;18062;48.872;9.220;2022-08-05T08:31:46;74.03;;;66.30;;
31438;SDS011;18062;48.872;9.220;2022-08-05T08:34:12;62.25;;;46.38;;
31438;SDS011;18062;48.872;9.220;2022-08-05T08:36:41;68.20;;;45.95;;
31438;SDS011;18062;48.872;9.220;2022-08-05T08:39:07;62.95;;;54.47;;
31438;SDS011;18062;48.872;9.220;2022-08-05T08:41:33;68.00;;;44.55;;
31438;SDS011;18062;48.872;9.220;2022-08-05T08:44:01;73.47;;;54.88;;
31438;SDS011;18062;48.872;9.220;2022-08-05T08:46:28;60.85;;;50.25;;
31438;SDS011;18062;48.872;9.220;2022-08-05T08:48:55;79.53;;;51.97;;
31438;SDS011;18062;48.872;9.220;2022-08-05T08:51:22;81.40;;;41.83;;
31438;SDS011;18062;48.872;9.220;2022-08-05T08:53:48;66.03;;;40.05;;
31438;SDS011;18062;48.872;9.220;2022-08-05T08:56:15;91.45;;;43.38;;
31438;SDS011;18062;48.872;9.220;2022-08-05T08:58:42;68.30;;;34.83;;
31438;SDS011;18062;48.872;9.220;2022-08-05T09:01:08;76.88;;;35.85;;
31438;SDS011;18062;48.872;9.220;2022-08-05T09:03:34;88.45;;;30.77;;
31438;SDS011;18062;48.872;9.220;2022-08-05T09:06:01;93.63;;;34.97;;
31438;SDS011;18062;48.872;9.220;2022-08-05T09:08:27;72.88;;;28.90;;
31438;SDS011;18062;48.872;9.220;2022-08-05T09:10:53;76.90;;;27.98;;
31438;SDS011;18062;48.872;9.220;2022-08-05T09:13:22;83.13;;;26.63;;
31438;SDS011;18062;48.872;9.220;2022-08-05T09:15:49;91.35;;;30.00;;
31438;SDS011;18062;48.872;9.220;2022-08-05T09:18:15;64.00;;;26.20;;
31438;SDS011;18062;48.872;9.220;2022-08-05T09:20:42;85.85;;;27.88;;
31438;SDS011;18062;48.872;9.220;2022-08-05T09:23:13;64.65;;;34.03;;
31438;SDS011;18062;48.872;9.220;2022-08-05T09:25:40;94.28;;;27.48;;
31438;SDS011;18062;48.872;9.220;2022-08-05T09:28:27;64.88;;;23.52;;
31438;SDS011;18062;48.872;9.220;2022-08-05T09:30:54;70.43;;;28.45;;
31438;SDS011;18062;48.872;9.220;2022-08-05T09:33:23;63.25;;;21.77;;
31438;SDS011;18062;48.872;9.220;2022-08-05T09:36:02;46.05;;;22.13;;
31438;SDS011;18062;48.872;9.220;2022-08-05T09:38:29;49.63;;;24.50;;
31438;SDS011;18062;48.872;9.220;2022-08-05T09:41:03;45.30;;;19.60;;
31438;SDS011;18062;48.872;9.220;2022-08-05T09:43:30;26.80;;;15.15;;
31438;SDS011;18062;48.872;9.220;2022-08-05T09:45:57;24.23;;;16.63;;
31438;SDS011;18062;48.872;9.220;2022-08-05T09:48:26;23.50;;;16.63;;
31438;SDS011;18062;48.872;9.220;2022-08-05T09:50:57;22.75;;;17.02;;
31438;SDS011;18062;48.872;9.220;2022-08-05T09:53:23;12.40;;;11.55;;
31438;SDS011;18062;48.872;9.220;2022-08-05T09:55:50;11.57;;;10.80;;
31438;SDS011;18062;48.872;9.220;2022-08-05T09:58:16;15.77;;;14.50;;
31438;SDS011;18062;48.872;9.220;2022-08-05T10:00:56;11.10;;;10.52;;
31438;SDS011;18062;48.872;9.220;2022-08-05T10:03:30;13.90;;;13.23;;
31438;SDS011;18062;48.872;9.220;2022-08-05T10:06:07;10.38;;;9.70;;
31438;SDS011;18062;48.872;9.220;2022-08-05T10:08:34;13.73;;;12.98;;
31438;SDS011;18062;48.872;9.220;2022-08-05T10:11:01;16.50;;;15.50;;
31438;SDS011;18062;48.872;9.220;2022-08-05T10:15:54;14.25;;;13.50;;
31438;SDS011;18062;48.872;9.220;2022-08-05T10:18:22;17.88;;;16.70;;
31438;SDS011;18062;48.872;9.220;2022-08-05T10:20:56;18.23;;;17.00;;
31438;SDS011;18062;48.872;9.220;2022-08-05T10:23:27;17.95;;;16.85;;
31438;SDS011;18062;48.872;9.220;2022-08-05T10:25:54;19.63;;;18.27;;
31438;SDS011;18062;48.872;9.220;2022-08-05T10:28:20;24.27;;;22.52;;
31438;SDS011;18062;48.872;9.220;2022-08-05T10:30:46;20.77;;;19.30;;
31438;SDS011;18062;48.872;9.220;2022-08-05T10:33:13;23.73;;;21.75;;
31438;SDS011;18062;48.872;9.220;2022-08-05T10:35:39;28.95;;;27.00;;
31438;SDS011;18062;48.872;9.220;2022-08-05T10:38:05;24.50;;;22.17;;
31438;SDS011;18062;48.872;9.220;2022-08-05T10:40:33;26.60;;;24.45;;
31438;SDS011;18062;48.872;9.220;2022-08-05T10:43:01;27.48;;;25.38;;
31438;SDS011;18062;48.872;9.220;2022-08-05T10:45:29;26.88;;;24.80;;
31438;SDS011;18062;48.872;9.220;2022-08-05T10:47:55;27.33;;;24.85;;
31438;SDS011;18062;48.872;9.220;2022-08-05T10:50:21;30.77;;;27.98;;
31438;SDS011;18062;48.872;9.220;2022-08-05T10:52:48;29.83;;;26.98;;
31438;SDS011;18062;48.872;9.220;2022-08-05T10:55:21;25.08;;;23.13;;
31438;SDS011;18062;48.872;9.220;2022-08-05T10:57:47;27.50;;;25.00;;
31438;SDS011;18062;48.872;9.220;2022-08-05T11:00:14;27.50;;;24.67;;
31438;SDS011;18062;48.872;9.220;2022-08-05T11:05:25;33.13;;;29.92;;
31438;SDS011;18062;48.872;9.220;2022-08-05T11:08:04;32.70;;;29.58;;
31438;SDS011;18062;48.872;9.220;2022-08-05T11:10:30;40.25;;;36.22;;
31438;SDS011;18062;48.872;9.220;2022-08-05T11:12:57;34.15;;;30.75;;
31438;SDS011;18062;48.872;9.220;2022-08-05T11:18:05;48.28;;;43.65;;
31438;SDS011;18062;48.872;9.220;2022-08-05T11:22:57;52.80;;;47.65;;
31438;SDS011;18062;48.872;9.220;2022-08-05T11:27:53;52.72;;;47.78;;
31438;SDS011;18062;48.872;9.220;2022-08-05T11:36:09;53.03;;;48.40;;
31438;SDS011;18062;48.872;9.220;2022-08-05T11:41:29;63.50;;;57.80;;
31438;SDS011;18062;48.872;9.220;2022-08-05T11:44:14;87.18;;;79.03;;
31438;SDS011;18062;48.872;9.220;2022-08-05T11:47:01;102.30;;;93.68;;
31438;SDS011;18062;48.872;9.220;2022-08-05T11:49:45;77.97;;;71.13;;
31438;SDS011;18062;48.872;9.220;2022-08-05T11:52:21;92.97;;;84.78;;
31438;SDS011;18062;48.872;9.220;2022-08-05T11:55:03;75.18;;;68.07;;
31438;SDS011;18062;48.872;9.220;2022-08-05T11:57:29;104.55;;;93.97;;
31438;SDS011;18062;48.872;9.220;2022-08-05T11:59:56;103.75;;;94.45;;
31438;SDS011;18062;48.872;9.220;2022-08-05T12:02:28;87.28;;;78.78;;
31438;SDS011;18062;48.872;9.220;2022-08-05T12:04:58;125.60;;;113.60;;
31438;SDS011;18062;48.872;9.220;2022-08-05T12:07:25;143.73;;;129.02;;
31438;SDS011;18062;48.872;9.220;2022-08-05T12:09:51;161.43;;;145.35;;
31438;SDS011;18062;48.872;9.220;2022-08-05T12:12:23;172.60;;;156.73;;
31438;SDS011;18062;48.872;9.220;2022-08-05T12:14:50;147.27;;;132.75;;
31438;SDS011;18062;48.872;9.220;2022-08-05T12:17:16;130.82;;;118.50;;
31438;SDS011;18062;48.872;9.220;2022-08-05T12:19:48;134.23;;;120.32;;
31438;SDS011;18062;48.872;9.220;2022-08-05T12:22:16;101.07;;;87.05;;
31438;SDS011;18062;48.872;9.220;2022-08-05T12:24:42;97.72;;;87.30;;
31438;SDS011;18062;48.872;9.220;2022-08-05T12:27:09;60.25;;;54.10;;
31438;SDS011;18062;48.872;9.220;2022-08-05T12:29:35;74.80;;;68.22;;
31438;SDS011;18062;48.872;9.220;2022-08-05T12:32:03;14.73;;;14.13;;
31438;SDS011;18062;48.872;9.220;2022-08-05T12:34:31;88.68;;;79.25;;
31438;SDS011;18062;48.872;9.220;2022-08-05T12:37:16;110.47;;;99.88;;
31438;SDS011;18062;48.872;9.220;2022-08-05T12:39:42;129.35;;;116.57;;
31438;SDS011;18062;48.872;9.220;2022-08-05T12:42:15;133.77;;;121.03;;
31438;SDS011;18062;48.872;9.220;2022-08-05T12:44:42;107.35;;;97.78;;
31438;SDS011;18062;48.872;9.220;2022-08-05T12:47:08;72.85;;;66.03;;
31438;SDS011;18062;48.872;9.220;2022-08-05T12:49:42;67.75;;;60.55;;
31438;SDS011;18062;48.872;9.220;2022-08-05T12:52:12;48.58;;;43.72;;
31438;SDS011;18062;48.872;9.220;2022-08-05T12:54:39;48.22;;;43.90;;
31438;SDS011;18062;48.872;9.220;2022-08-05T12:57:06;40.25;;;36.83;;
31438;SDS011;18062;48.872;9.220;2022-08-05T12:59:34;51.83;;;47.35;;
31438;SDS011;18062;48.872;9.220;2022-08-05T13:02:08;51.13;;;47.03;;
31438;SDS011;18062;48.872;9.220;2022-08-05T13:04:35;40.10;;;36.10;;
31438;SDS011;18062;48.872;9.220;2022-08-05T13:07:02;34.60;;;31.23;;
31438;SDS011;18062;48.872;9.220;2022-08-05T13:09:29;24.05;;;21.98;;
31438;SDS011;18062;48.872;9.220;2022-08-05T13:12:02;27.00;;;25.05;;
31438;SDS011;18062;48.872;9.220;2022-08-05T13:14:33;28.05;;;26.10;;
31438;SDS011;18062;48.872;9.220;2022-08-05T13:17:00;29.25;;;26.95;;
31438;SDS011;18062;48.872;9.220;2022-08-05T13:19:26;39.78;;;36.67;;
31438;SDS011;18062;48.872;9.220;2022-08-05T13:21:53;40.67;;;36.55;;
31438;SDS011;18062;48.872;9.220;2022-08-05T13:24:21;43.90;;;40.10;;
31438;SDS011;18062;48.872;9.220;2022-08-05T13:26:48;46.38;;;42.35;;
31438;SDS011;18062;48.872;9.220;2022-08-05T13:29:15;51.42;;;46.22;;
31438;SDS011;18062;48.872;9.220;2022-08-05T13:31:41;45.78;;;41.58;;
31438;SDS011;18062;48.872;9.220;2022-08-05T13:34:08;57.58;;;51.40;;
31438;SDS011;18062;48.872;9.220;2022-08-05T13:36:34;77.50;;;70.72;;
31438;SDS011;18062;48.872;9.220;2022-08-05T13:39:01;77.90;;;70.32;;
31438;SDS011;18062;48.872;9.220;2022-08-05T13:41:28;72.05;;;65.85;;
31438;SDS011;18062;48.872;9.220;2022-08-05T13:43:54;112.72;;;103.00;;
31438;SDS011;18062;48.872;9.220;2022-08-05T13:46:23;150.43;;;136.90;;
31438;SDS011;18062;48.872;9.220;2022-08-05T13:48:51;182.15;;;164.77;;
31438;SDS011;18062;48.872;9.220;2022-08-05T13:51:24;243.30;;;217.73;;
31438;SDS011;18062;48.872;9.220;2022-08-05T13:53:50;298.65;;;268.05;;
31438;SDS011;18062;48.872;9.220;2022-08-05T13:56:16;168.45;;;152.30;;
31438;SDS011;18062;48.872;9.220;2022-08-05T13:58:42;80.80;;;72.88;;
31438;SDS011;18062;48.872;9.220;2022-08-05T14:01:08;61.38;;;51.70;;
31438;SDS011;18062;48.872;9.220;2022-08-05T14:03:34;43.63;;;39.05;;
31438;SDS011;18062;48.872;9.220;2022-08-05T14:06:00;26.33;;;23.92;;
31438;SDS011;18062;48.872;9.220;2022-08-05T14:08:26;27.08;;;25.02;;
31438;SDS011;18062;48.872;9.220;2022-08-05T14:10:52;32.35;;;29.98;;
31438;SDS011;18062;48.872;9.220;2022-08-05T14:13:18;23.60;;;22.38;;
31438;SDS011;18062;48.872;9.220;2022-08-05T14:15:44;26.23;;;24.67;;
31438;SDS011;18062;48.872;9.220;2022-08-05T14:18:11;25.65;;;24.10;;
31438;SDS011;18062;48.872;9.220;2022-08-05T14:20:37;20.80;;;19.38;;
31438;SDS011;18062;48.872;9.220;2022-08-05T14:23:03;21.48;;;20.17;;
31438;SDS011;18062;48.872;9.220;2022-08-05T14:25:29;12.65;;;12.00;;
31438;SDS011;18062;48.872;9.220;2022-08-05T14:27:55;13.07;;;12.43;;
31438;SDS011;18062;48.872;9.220;2022-08-05T14:30:21;10.73;;;10.07;;
31438;SDS011;18062;48.872;9.220;2022-08-05T14:32:49;14.65;;;13.90;;
31438;SDS011;18062;48.872;9.220;2022-08-05T14:35:15;11.15;;;10.63;;
31438;SDS011;18062;48.872;9.220;2022-08-05T14:37:41;12.10;;;11.52;;
31438;SDS011;18062;48.872;9.220;2022-08-05T14:40:07;11.88;;;11.25;;
31438;SDS011;18062;48.872;9.220;2022-08-05T14:42:33;15.60;;;14.63;;
31438;SDS011;18062;48.872;9.220;2022-08-05T14:44:59;12.70;;;11.95;;